Terminal Aerodrome Forecast
Issued by NWS

Current Version | Previous Version | Graphics & Text | Print | Product List | Glossary On
Versions: 1 2 3 4 5 6 7 8 9 10 11 12 13 14 15 16 17 18 19 20 21 22 23 24
000
FTUS41 KILN 230535
TAFLUK
TAF
KLUK 230535Z 2306/2406 25012G21KT P6SM SCT080
     FM230900 22012G22KT P6SM VCSH OVC050
     FM231200 24016G26KT P6SM VCSH OVC025
     FM240000 27010G18KT P6SM OVC018=

USA.gov is the U.S. government's official web portal to all federal, state and local government web resources and services.